createdAt,value
2019-05-29T00:00:58.431Z,10.91
2019-05-29T00:01:58.392Z,10.89
2019-05-29T00:02:58.402Z,10.91
2019-05-29T00:03:58.409Z,10.84
2019-05-29T00:04:58.393Z,10.88
2019-05-29T00:05:58.369Z,10.81
2019-05-29T00:06:58.352Z,10.88
2019-05-29T00:07:58.343Z,10.81
2019-05-29T00:08:58.337Z,10.78
2019-05-29T00:09:58.319Z,10.78
2019-05-29T00:10:58.313Z,10.77
2019-05-29T00:11:58.302Z,10.80
2019-05-29T00:12:58.283Z,10.81
2019-05-29T00:13:58.281Z,10.88
2019-05-29T00:14:58.278Z,10.86
2019-05-29T00:15:58.255Z,10.91
2019-05-29T00:16:58.255Z,10.98
2019-05-29T00:17:58.224Z,10.98
2019-05-29T00:18:58.450Z,10.98
2019-05-29T00:19:58.224Z,10.98
2019-05-29T00:20:58.200Z,11.01
2019-05-29T00:21:58.182Z,10.91
2019-05-29T00:22:58.178Z,10.84
2019-05-29T00:23:58.165Z,10.92
2019-05-29T00:24:58.174Z,10.84
2019-05-29T00:25:58.138Z,10.91
2019-05-29T00:26:58.123Z,10.83
2019-05-29T00:27:58.129Z,10.80
2019-05-29T00:28:58.094Z,10.94
2019-05-29T00:29:58.132Z,10.92
2019-05-29T00:30:58.085Z,10.91
2019-05-29T00:31:58.080Z,10.95
2019-05-29T00:32:58.062Z,10.99
2019-05-29T00:33:58.034Z,11.01
2019-05-29T00:34:58.056Z,11.01
2019-05-29T00:35:58.070Z,10.98
2019-05-29T00:36:58.027Z,10.88
2019-05-29T00:37:58.011Z,10.92
2019-05-29T00:38:57.997Z,10.95
2019-05-29T00:39:57.995Z,11.01
2019-05-29T00:40:57.970Z,10.88
2019-05-29T00:41:57.955Z,10.99
2019-05-29T00:42:57.950Z,10.99
2019-05-29T00:43:57.941Z,10.98
2019-05-29T00:44:57.942Z,10.99
2019-05-29T00:45:57.977Z,11.01
2019-05-29T00:46:57.905Z,10.99
2019-05-29T00:47:57.896Z,11.02
2019-05-29T00:48:57.895Z,11.02
2019-05-29T00:49:57.887Z,11.06
2019-05-29T00:50:57.866Z,11.01
2019-05-29T00:51:57.847Z,11.07
2019-05-29T00:52:57.847Z,11.03
2019-05-29T00:53:57.825Z,11.03
2019-05-29T00:54:57.843Z,10.96
2019-05-29T00:55:57.814Z,11.11
2019-05-29T00:56:57.795Z,11.11
2019-05-29T00:57:57.790Z,11.10
2019-05-29T00:58:57.768Z,11.03
2019-05-29T00:59:57.787Z,11.03
2019-05-29T01:00:57.751Z,11.07
2019-05-29T01:01:57.758Z,11.06
2019-05-29T01:02:57.742Z,10.99
2019-05-29T01:03:57.732Z,11.03
2019-05-29T01:04:57.742Z,11.02
2019-05-29T01:05:57.712Z,11.06
2019-05-29T01:06:57.686Z,11.02
2019-05-29T01:07:57.678Z,10.99
2019-05-29T01:08:57.657Z,10.95
2019-05-29T01:09:57.689Z,10.95
2019-05-29T01:10:57.644Z,10.94
2019-05-29T01:11:57.648Z,10.95
2019-05-29T01:12:57.619Z,10.98
2019-05-29T01:13:57.599Z,10.95
2019-05-29T01:14:57.621Z,10.98
2019-05-29T01:15:57.590Z,10.94
2019-05-29T01:16:57.581Z,10.91
2019-05-29T01:17:57.560Z,10.86
2019-05-29T01:18:57.583Z,10.81
2019-05-29T01:19:57.570Z,10.84
2019-05-29T01:20:57.545Z,10.73
2019-05-29T01:21:57.733Z,10.80
2019-05-29T01:22:57.511Z,10.73
2019-05-29T01:23:57.486Z,10.70
2019-05-29T01:24:57.526Z,10.68
2019-05-29T01:25:57.483Z,10.76
2019-05-29T01:26:57.459Z,10.70
2019-05-29T01:27:57.457Z,10.70
2019-05-29T01:28:57.442Z,10.66
2019-05-29T01:29:57.445Z,10.73
2019-05-29T01:30:57.424Z,10.66
2019-05-29T01:31:57.405Z,10.66
2019-05-29T01:32:57.388Z,10.74
2019-05-29T01:33:57.378Z,10.60
2019-05-29T01:34:57.395Z,10.71
2019-05-29T01:35:57.369Z,10.66
2019-05-29T01:36:57.345Z,10.70
2019-05-29T01:37:57.354Z,10.60
2019-05-29T01:38:57.346Z,10.62
2019-05-29T01:39:57.330Z,10.56
2019-05-29T01:40:57.321Z,10.66
2019-05-29T01:41:57.312Z,10.63
2019-05-29T01:42:57.282Z,10.68
2019-05-29T01:43:57.279Z,10.65
2019-05-29T01:45:07.097Z,10.65
2019-05-29T01:45:58.255Z,10.59
2019-05-29T01:46:57.244Z,10.66
2019-05-29T01:47:57.247Z,10.65
2019-05-29T01:48:57.228Z,10.58
2019-05-29T01:49:57.216Z,10.47
2019-05-29T01:50:57.184Z,10.52
2019-05-29T01:51:57.189Z,10.53
2019-05-29T01:52:57.181Z,10.58
2019-05-29T01:53:57.170Z,10.51
2019-05-29T01:54:57.164Z,10.53
2019-05-29T01:55:57.157Z,10.58
2019-05-29T01:56:57.130Z,10.53
2019-05-29T01:57:57.116Z,10.70
2019-05-29T01:58:57.119Z,10.46
2019-05-29T01:59:57.107Z,10.53
2019-05-29T02:00:57.076Z,10.65
2019-05-29T02:01:57.094Z,10.56
2019-05-29T02:02:57.059Z,10.52
2019-05-29T02:03:57.046Z,10.63
2019-05-29T02:04:57.065Z,10.59
2019-05-29T02:05:57.027Z,10.63
2019-05-29T02:06:57.040Z,10.71
2019-05-29T02:07:57.013Z,10.68
2019-05-29T02:08:57.009Z,10.63
2019-05-29T02:09:57.003Z,10.62
2019-05-29T02:10:56.979Z,10.68
2019-05-29T02:11:56.974Z,10.70
2019-05-29T02:12:56.944Z,10.71
2019-05-29T02:13:56.946Z,10.63
2019-05-29T02:14:56.946Z,10.68
2019-05-29T02:15:56.915Z,10.68
2019-05-29T02:16:56.904Z,10.73
2019-05-29T02:17:56.924Z,10.68
2019-05-29T02:18:56.885Z,10.74
2019-05-29T02:19:56.955Z,10.78
2019-05-29T02:20:56.872Z,10.71
2019-05-29T02:21:56.874Z,10.77
2019-05-29T02:22:56.867Z,10.73
2019-05-29T02:23:56.848Z,10.74
2019-05-29T02:24:56.858Z,10.77
2019-05-29T02:25:56.818Z,10.76
2019-05-29T02:26:56.795Z,10.74
2019-05-29T02:27:56.803Z,10.78
2019-05-29T02:28:56.774Z,10.76
2019-05-29T02:29:56.783Z,10.81
2019-05-29T02:30:56.757Z,10.86
2019-05-29T02:31:56.747Z,10.81
2019-05-29T02:32:56.739Z,10.80
2019-05-29T02:33:56.726Z,10.83
2019-05-29T02:34:56.953Z,10.83
2019-05-29T02:35:56.722Z,10.88
2019-05-29T02:36:56.682Z,10.77
2019-05-29T02:37:56.683Z,10.83
2019-05-29T02:38:56.700Z,10.83
2019-05-29T02:39:56.679Z,10.83
2019-05-29T02:40:56.656Z,10.88
2019-05-29T02:41:56.653Z,10.86
2019-05-29T02:42:56.631Z,10.84
2019-05-29T02:43:56.616Z,10.83
2019-05-29T02:44:56.618Z,10.84
2019-05-29T02:45:56.621Z,10.86
2019-05-29T02:46:56.598Z,10.92
2019-05-29T02:47:56.584Z,10.83
2019-05-29T02:48:56.567Z,10.88
2019-05-29T02:49:56.573Z,10.81
2019-05-29T02:50:56.555Z,10.84
2019-05-29T02:51:56.531Z,10.83
2019-05-29T02:52:57.429Z,10.86
2019-05-29T02:53:56.526Z,10.94
2019-05-29T02:54:56.512Z,10.81
2019-05-29T02:55:56.470Z,10.86
2019-05-29T02:56:56.476Z,10.86
2019-05-29T02:57:56.485Z,10.84
2019-05-29T02:58:56.445Z,10.91
2019-05-29T02:59:56.479Z,10.86
2019-05-29T03:00:56.433Z,10.81
2019-05-29T03:01:56.415Z,10.84
2019-05-29T03:02:56.444Z,10.86
2019-05-29T03:03:56.389Z,10.83
2019-05-29T03:04:56.409Z,10.84
2019-05-29T03:05:56.390Z,10.88
2019-05-29T03:06:56.350Z,10.92
2019-05-29T03:07:56.358Z,10.91
2019-05-29T03:08:56.331Z,10.91
2019-05-29T03:09:56.332Z,10.94
2019-05-29T03:10:56.333Z,10.88
2019-05-29T03:12:00.057Z,10.88
2019-05-29T03:12:56.336Z,10.91
2019-05-29T03:13:56.302Z,10.95
2019-05-29T03:14:56.306Z,10.94
2019-05-29T03:16:09.840Z,10.89
2019-05-29T03:16:57.256Z,10.94
2019-05-29T03:17:56.260Z,10.88
2019-05-29T03:18:56.227Z,10.89
2019-05-29T03:19:56.235Z,10.91
2019-05-29T03:20:56.212Z,10.84
2019-05-29T03:21:56.238Z,10.83
2019-05-29T03:22:56.187Z,10.81
2019-05-29T03:23:56.184Z,10.88
2019-05-29T03:24:56.194Z,10.95
2019-05-29T03:25:56.154Z,10.88
2019-05-29T03:26:56.162Z,10.99
2019-05-29T03:27:56.198Z,10.95
2019-05-29T03:28:56.122Z,10.96
2019-05-29T03:29:56.136Z,10.99
2019-05-29T03:30:56.115Z,10.98
2019-05-29T03:31:56.080Z,10.99
2019-05-29T03:32:56.079Z,11.02
2019-05-29T03:33:56.061Z,11.02
2019-05-29T03:34:56.063Z,11.06
2019-05-29T03:35:56.053Z,11.11
2019-05-29T03:36:56.029Z,11.01
2019-05-29T03:37:58.790Z,11.17
2019-05-29T03:38:56.012Z,11.10
2019-05-29T03:39:56.052Z,11.07
2019-05-29T03:40:55.997Z,11.13
2019-05-29T03:41:55.975Z,11.16
2019-05-29T03:42:55.979Z,11.13
2019-05-29T03:43:55.951Z,11.20
2019-05-29T03:44:55.951Z,11.14
2019-05-29T03:45:55.927Z,11.11
2019-05-29T03:46:55.932Z,11.10
2019-05-29T03:47:55.914Z,11.14
2019-05-29T03:48:55.917Z,11.16
2019-05-29T03:49:55.904Z,11.20
2019-05-29T03:50:55.869Z,11.21
2019-05-29T03:51:55.871Z,11.17
2019-05-29T03:52:55.862Z,11.21
2019-05-29T03:53:55.848Z,11.19
2019-05-29T03:54:55.852Z,11.14
2019-05-29T03:55:55.825Z,11.11
2019-05-29T03:56:55.816Z,11.24
2019-05-29T03:57:55.817Z,11.25
2019-05-29T03:58:55.801Z,11.27
2019-05-29T03:59:55.783Z,11.25
2019-05-29T04:00:55.771Z,11.21
2019-05-29T04:01:55.768Z,11.27
2019-05-29T04:02:55.746Z,11.14
2019-05-29T04:03:55.737Z,11.21
2019-05-29T04:04:55.755Z,11.17
2019-05-29T04:05:55.729Z,11.24
2019-05-29T04:06:55.719Z,11.17
2019-05-29T04:07:55.700Z,11.14
2019-05-29T04:08:55.684Z,11.14
2019-05-29T04:09:55.674Z,11.14
2019-05-29T04:10:55.667Z,11.14
2019-05-29T04:11:55.657Z,11.09
2019-05-29T04:12:55.626Z,11.06
2019-05-29T04:13:55.619Z,11.07
2019-05-29T04:14:55.630Z,11.03
2019-05-29T04:15:55.605Z,11.11
2019-05-29T04:16:59.817Z,11.02
2019-05-29T04:17:55.577Z,11.06
2019-05-29T04:18:55.572Z,11.10
2019-05-29T04:19:55.586Z,11.13
2019-05-29T04:20:55.548Z,11.06
2019-05-29T04:21:55.543Z,11.20
2019-05-29T04:22:55.525Z,11.17
2019-05-29T04:23:55.516Z,11.10
2019-05-29T04:24:55.545Z,11.21
2019-05-29T04:25:55.486Z,11.24
2019-05-29T04:26:55.485Z,11.21
2019-05-29T04:27:55.470Z,11.27
2019-05-29T04:28:55.476Z,11.20
2019-05-29T04:29:55.454Z,11.25
2019-05-29T04:30:55.453Z,11.27
2019-05-29T04:31:55.421Z,11.27
2019-05-29T04:32:55.429Z,11.29
2019-05-29T04:33:55.397Z,11.32
2019-05-29T04:34:55.397Z,11.41
2019-05-29T04:35:55.386Z,11.44
2019-05-29T04:36:55.369Z,11.38
2019-05-29T04:37:55.353Z,11.39
2019-05-29T04:38:55.353Z,11.46
2019-05-29T04:39:55.343Z,11.44
2019-05-29T04:40:55.347Z,11.47
2019-05-29T04:41:55.335Z,11.56
2019-05-29T04:42:55.293Z,11.59
2019-05-29T04:43:57.168Z,11.61
2019-05-29T04:44:55.280Z,11.68
2019-05-29T04:45:55.274Z,11.71
2019-05-29T04:47:10.404Z,11.82
2019-05-29T04:47:56.248Z,11.82
2019-05-29T04:48:55.227Z,11.77
2019-05-29T04:49:55.235Z,11.77
2019-05-29T04:50:55.228Z,11.85
2019-05-29T04:51:55.220Z,11.86
2019-05-29T04:52:55.188Z,11.93
2019-05-29T04:53:55.174Z,11.97
2019-05-29T04:54:55.173Z,12.12
2019-05-29T04:55:55.181Z,12.16
2019-05-29T04:56:55.165Z,12.19
2019-05-29T04:57:55.144Z,12.21
2019-05-29T04:58:55.130Z,12.33
2019-05-29T04:59:55.126Z,12.27
2019-05-29T05:00:59.171Z,12.33
2019-05-29T05:01:55.096Z,12.42
2019-05-29T05:02:55.090Z,12.52
2019-05-29T05:03:55.060Z,12.57
2019-05-29T05:04:55.078Z,12.63
2019-05-29T05:05:55.080Z,12.71
2019-05-29T05:06:55.036Z,12.69
2019-05-29T05:07:55.065Z,12.71
2019-05-29T05:08:55.028Z,12.70
2019-05-29T05:09:54.996Z,12.84
2019-05-29T05:10:55.002Z,12.87
2019-05-29T05:11:54.981Z,12.99
2019-05-29T05:12:54.977Z,13.11
2019-05-29T05:13:54.955Z,13.29
2019-05-29T05:14:54.965Z,13.38
2019-05-29T05:15:54.947Z,13.52
2019-05-29T05:16:54.921Z,13.51
2019-05-29T05:17:54.916Z,13.71
2019-05-29T05:18:54.918Z,13.63
2019-05-29T05:19:54.898Z,13.67
2019-05-29T05:20:54.897Z,13.79
2019-05-29T05:21:54.919Z,13.76
2019-05-29T05:22:54.862Z,13.80
2019-05-29T05:23:54.855Z,13.76
2019-05-29T05:24:55.485Z,13.74
2019-05-29T05:25:54.825Z,13.63
2019-05-29T05:26:54.813Z,13.70
2019-05-29T05:27:54.806Z,13.69
2019-05-29T05:28:54.823Z,13.61
2019-05-29T05:29:54.777Z,13.61
2019-05-29T05:30:54.784Z,13.95
2019-05-29T05:31:54.773Z,14.04
2019-05-29T05:32:54.742Z,14.16
2019-05-29T05:33:54.752Z,14.14
2019-05-29T05:34:54.732Z,14.21
2019-05-29T05:35:54.726Z,14.24
2019-05-29T05:36:54.713Z,14.27
2019-05-29T05:37:54.708Z,14.64
2019-05-29T05:38:54.735Z,14.88
2019-05-29T05:39:54.671Z,15.08
2019-05-29T05:40:54.665Z,15.19
2019-05-29T05:41:54.641Z,15.27
2019-05-29T05:42:54.642Z,15.30
2019-05-29T05:43:54.645Z,15.39
2019-05-29T05:44:54.622Z,15.67
2019-05-29T05:45:54.618Z,15.74
2019-05-29T05:46:54.607Z,16.16
2019-05-29T05:47:57.837Z,16.16
2019-05-29T05:48:54.568Z,16.07
2019-05-29T05:49:54.567Z,15.96
2019-05-29T05:50:54.556Z,15.82
2019-05-29T05:51:54.540Z,15.75
2019-05-29T05:52:54.531Z,15.67
2019-05-29T05:53:54.519Z,15.68
2019-05-29T05:54:54.507Z,15.70
2019-05-29T05:55:54.543Z,15.76
2019-05-29T05:56:54.516Z,15.78
2019-05-29T05:57:54.466Z,15.89
2019-05-29T05:58:54.467Z,15.99
2019-05-29T05:59:54.457Z,16.12
2019-05-29T06:00:54.450Z,16.18
2019-05-29T06:01:54.428Z,16.16
2019-05-29T06:02:54.409Z,16.23
2019-05-29T06:03:54.411Z,16.50
2019-05-29T06:04:54.389Z,16.65
2019-05-29T06:05:54.394Z,16.56
2019-05-29T06:06:54.361Z,16.52
2019-05-29T06:07:54.363Z,16.50
2019-05-29T06:08:54.349Z,16.48
2019-05-29T06:09:54.345Z,16.26
2019-05-29T06:10:54.352Z,15.97
2019-05-29T06:11:54.315Z,15.85
2019-05-29T06:12:54.295Z,15.82
2019-05-29T06:13:54.295Z,15.84
2019-05-29T06:14:54.291Z,16.11
2019-05-29T06:15:54.279Z,16.70
2019-05-29T06:16:54.261Z,17.22
2019-05-29T06:18:17.113Z,17.22
2019-05-29T06:18:55.234Z,17.38
2019-05-29T06:19:54.215Z,17.85
2019-05-29T06:20:54.216Z,18.36
2019-05-29T06:21:54.211Z,18.57
2019-05-29T06:22:54.203Z,18.91
2019-05-29T06:23:54.195Z,19.65
2019-05-29T06:24:54.178Z,20.33
2019-05-29T06:25:54.183Z,21.24
2019-05-29T06:26:54.150Z,22.06
2019-05-29T06:27:54.145Z,22.71
2019-05-29T06:28:54.139Z,23.20
2019-05-29T06:29:54.109Z,23.57
2019-05-29T06:30:54.119Z,23.97
2019-05-29T06:31:54.074Z,24.19
2019-05-29T06:32:54.085Z,24.42
2019-05-29T06:33:54.070Z,24.56
2019-05-29T06:34:54.077Z,24.85
2019-05-29T06:35:54.074Z,25.27
2019-05-29T06:36:54.062Z,25.69
2019-05-29T06:37:54.030Z,25.77
2019-05-29T06:38:54.022Z,25.90
2019-05-29T06:39:54.012Z,25.74
2019-05-29T06:40:54.005Z,25.89
2019-05-29T06:41:53.985Z,26.24
2019-05-29T06:42:53.996Z,26.49
2019-05-29T06:43:53.955Z,26.31
2019-05-29T06:44:53.981Z,26.31
2019-05-29T06:45:53.960Z,26.46
2019-05-29T06:46:53.932Z,26.58
2019-05-29T06:47:53.927Z,26.95
2019-05-29T06:49:00.417Z,27.17
2019-05-29T06:49:54.902Z,27.54
2019-05-29T06:50:57.113Z,27.32
2019-05-29T06:51:53.884Z,27.09
2019-05-29T06:52:53.855Z,26.98
2019-05-29T06:53:53.859Z,26.80
2019-05-29T06:54:53.856Z,25.87
2019-05-29T06:55:55.744Z,25.27
2019-05-29T06:56:53.833Z,25.05
2019-05-29T06:57:53.810Z,24.88
2019-05-29T06:58:53.828Z,24.75
2019-05-29T06:59:53.810Z,24.10
2019-05-29T07:00:53.783Z,23.52
2019-05-29T07:01:53.779Z,22.93
2019-05-29T07:02:53.747Z,23.22
2019-05-29T07:04:10.474Z,23.19
2019-05-29T07:04:54.748Z,22.89
2019-05-29T07:05:53.743Z,22.29
2019-05-29T07:06:53.740Z,22.29
2019-05-29T07:07:53.724Z,22.75
2019-05-29T07:08:53.704Z,23.38
2019-05-29T07:09:53.685Z,23.80
2019-05-29T07:10:53.726Z,24.05
2019-05-29T07:11:53.678Z,24.47
2019-05-29T07:12:53.654Z,23.72
2019-05-29T07:13:53.657Z,23.72
2019-05-29T07:14:53.626Z,24.17
2019-05-29T07:15:53.634Z,23.97
2019-05-29T07:16:56.188Z,23.31
2019-05-29T07:17:53.606Z,22.94
2019-05-29T07:19:23.759Z,22.65
2019-05-29T07:20:03.378Z,22.07
2019-05-29T07:20:54.588Z,22.60
2019-05-29T07:21:53.580Z,23.46
2019-05-29T07:22:53.554Z,24.37
2019-05-29T07:23:53.532Z,24.83
2019-05-29T07:24:53.535Z,25.09
2019-05-29T07:25:53.517Z,24.02
2019-05-29T07:26:53.532Z,23.15
2019-05-29T07:27:53.508Z,23.67
2019-05-29T07:29:06.465Z,23.26
2019-05-29T07:29:54.486Z,22.89
2019-05-29T07:31:01.209Z,23.45
2019-05-29T07:31:54.464Z,23.87
2019-05-29T07:32:58.324Z,24.67
2019-05-29T07:33:54.432Z,25.15
2019-05-29T07:35:03.036Z,24.90
2019-05-29T07:35:54.416Z,25.32
2019-05-29T07:36:53.426Z,25.87
2019-05-29T07:37:53.410Z,26.02
2019-05-29T07:39:02.718Z,25.71
2019-05-29T07:39:54.370Z,25.31
2019-05-29T07:40:53.398Z,24.57
2019-05-29T07:41:53.361Z,24.67
2019-05-29T07:42:56.795Z,24.04
2019-05-29T07:43:53.325Z,23.77
2019-05-29T07:44:53.331Z,22.92
2019-05-29T07:45:53.327Z,23.38
2019-05-29T07:46:53.335Z,24.32
2019-05-29T07:47:53.296Z,24.87
2019-05-29T07:48:53.278Z,25.31
2019-05-29T07:49:53.268Z,25.65
2019-05-29T07:51:06.240Z,24.83
2019-05-29T07:51:54.304Z,23.89
2019-05-29T07:52:53.344Z,22.89
2019-05-29T07:53:53.228Z,21.74
2019-05-29T07:54:53.275Z,21.04
2019-05-29T07:55:53.201Z,20.95
2019-05-29T07:56:53.216Z,22.41
2019-05-29T07:57:53.196Z,23.71
2019-05-29T07:59:02.212Z,24.63
2019-05-29T07:59:54.153Z,25.52
2019-05-29T08:01:05.370Z,26.21
2019-05-29T08:01:54.158Z,26.32
2019-05-29T08:02:53.131Z,25.00
2019-05-29T08:03:53.127Z,24.12
2019-05-29T08:04:53.109Z,23.38
2019-05-29T08:05:53.517Z,22.92
2019-05-29T08:06:54.617Z,22.69
2019-05-29T08:07:53.123Z,22.10
2019-05-29T08:08:53.072Z,21.71
2019-05-29T08:09:53.056Z,21.71
2019-05-29T08:10:53.041Z,22.46
2019-05-29T08:11:53.052Z,22.16
2019-05-29T08:12:55.597Z,21.67
2019-05-29T08:13:53.010Z,21.34
2019-05-29T08:14:53.026Z,20.96
2019-05-29T08:16:02.330Z,20.61
2019-05-29T08:16:54.000Z,20.25
2019-05-29T08:17:52.961Z,19.97
2019-05-29T08:18:53.334Z,19.53
2019-05-29T08:20:03.185Z,19.25
2019-05-29T08:20:53.946Z,21.11
2019-05-29T08:21:52.931Z,22.86
2019-05-29T08:22:52.924Z,24.13
2019-05-29T08:23:52.903Z,25.28
2019-05-29T08:24:52.884Z,26.29
2019-05-29T08:25:52.869Z,26.96
2019-05-29T08:26:52.897Z,27.53
2019-05-29T08:27:52.853Z,28.13
2019-05-29T08:28:52.845Z,28.68
2019-05-29T08:29:52.859Z,28.87
2019-05-29T08:30:56.418Z,29.10
2019-05-29T08:31:52.827Z,29.49
2019-05-29T08:32:52.829Z,29.70
2019-05-29T08:33:52.805Z,29.79
2019-05-29T08:34:52.782Z,29.75
2019-05-29T08:35:59.362Z,29.78
2019-05-29T08:37:04.873Z,30.12
2019-05-29T08:37:53.765Z,30.46
2019-05-29T08:38:52.741Z,30.69
2019-05-29T08:39:52.737Z,28.81
2019-05-29T08:40:52.740Z,27.69
2019-05-29T08:42:18.104Z,26.77
2019-05-29T08:42:53.706Z,25.98
2019-05-29T08:43:52.899Z,25.90
2019-05-29T08:44:52.684Z,27.05
2019-05-29T08:45:52.840Z,26.77
2019-05-29T08:47:08.961Z,26.55
2019-05-29T08:47:53.646Z,27.39
2019-05-29T08:48:52.654Z,28.04
2019-05-29T08:49:54.437Z,28.58
2019-05-29T08:50:52.644Z,28.97
2019-05-29T08:52:10.194Z,29.18
2019-05-29T08:52:53.616Z,29.97
2019-05-29T08:53:54.712Z,30.59
2019-05-29T08:54:52.595Z,30.69
2019-05-29T08:55:52.751Z,31.12
2019-05-29T08:56:52.602Z,31.70
2019-05-29T08:57:52.571Z,32.32
2019-05-29T08:58:52.626Z,32.74
2019-05-29T08:59:52.722Z,31.96
2019-05-29T09:00:55.208Z,30.09
2019-05-29T09:01:55.276Z,28.53
2019-05-29T09:02:52.873Z,28.33
2019-05-29T09:03:53.323Z,28.91
2019-05-29T09:04:54.690Z,29.49
2019-05-29T09:06:08.181Z,29.86
2019-05-29T09:06:53.638Z,29.89
2019-05-29T09:07:54.265Z,29.49
2019-05-29T09:08:54.728Z,30.16
2019-05-29T09:09:53.297Z,30.43
2019-05-29T09:10:53.935Z,30.68
2019-05-29T09:11:53.627Z,30.43
2019-05-29T09:13:03.618Z,30.68
2019-05-29T09:13:53.415Z,31.06
2019-05-29T09:14:52.524Z,31.04
2019-05-29T09:15:52.413Z,31.04
2019-05-29T09:16:52.476Z,31.45
2019-05-29T09:17:52.358Z,31.77
2019-05-29T09:18:52.358Z,30.98
2019-05-29T09:19:52.348Z,29.18
2019-05-29T09:21:02.804Z,28.36
2019-05-29T09:21:53.338Z,29.13
2019-05-29T09:22:52.326Z,29.00
2019-05-29T09:23:52.297Z,28.06
2019-05-29T09:24:52.296Z,27.61
2019-05-29T09:25:52.288Z,27.88
2019-05-29T09:26:52.289Z,28.41
2019-05-29T09:27:52.284Z,28.90
2019-05-29T09:28:52.264Z,28.14
2019-05-29T09:29:52.274Z,27.64
2019-05-29T09:30:52.234Z,29.07
2019-05-29T09:31:52.243Z,29.99
2019-05-29T09:32:53.120Z,30.75
2019-05-29T09:33:52.212Z,31.01
2019-05-29T09:34:52.243Z,30.62
2019-05-29T09:35:52.196Z,29.81
2019-05-29T09:36:55.478Z,29.87
2019-05-29T09:37:52.173Z,30.53
2019-05-29T09:38:52.175Z,30.71
2019-05-29T09:39:52.151Z,30.26
2019-05-29T09:40:52.948Z,29.43
2019-05-29T09:41:52.144Z,29.19
2019-05-29T09:42:52.117Z,27.70
2019-05-29T09:43:58.600Z,26.61
2019-05-29T09:44:53.103Z,26.01
2019-05-29T09:45:52.085Z,27.06
2019-05-29T09:46:52.111Z,28.23
2019-05-29T09:47:52.064Z,28.88
2019-05-29T09:48:52.079Z,28.87
2019-05-29T09:49:52.063Z,29.08
2019-05-29T09:50:52.049Z,29.63
2019-05-29T09:51:52.671Z,30.23
2019-05-29T09:52:54.510Z,30.75
2019-05-29T09:53:52.460Z,30.93
2019-05-29T09:54:53.469Z,31.40
2019-05-29T09:55:52.291Z,31.88
2019-05-29T09:56:52.240Z,32.10
2019-05-29T09:57:53.522Z,31.95
2019-05-29T09:58:53.654Z,32.03
2019-05-29T09:59:53.795Z,32.30
2019-05-29T10:01:09.599Z,32.47
2019-05-29T10:01:54.666Z,32.54
2019-05-29T10:02:52.819Z,31.36
2019-05-29T10:03:54.627Z,30.14
2019-05-29T10:04:53.127Z,29.65
2019-05-29T10:05:53.961Z,28.65
2019-05-29T10:06:53.131Z,27.96
2019-05-29T10:07:53.102Z,27.64
2019-05-29T10:08:51.860Z,26.99
2019-05-29T10:09:51.862Z,26.25
2019-05-29T10:10:51.874Z,25.77
2019-05-29T10:11:51.860Z,26.73
2019-05-29T10:12:51.833Z,27.77
2019-05-29T10:13:51.827Z,28.59
2019-05-29T10:14:51.839Z,29.38
2019-05-29T10:15:51.800Z,29.28
2019-05-29T10:16:51.812Z,28.33
2019-05-29T10:17:51.789Z,27.89
2019-05-29T10:18:51.781Z,27.31
2019-05-29T10:19:51.772Z,28.81
2019-05-29T10:20:51.757Z,29.63
2019-05-29T10:21:51.766Z,30.46
2019-05-29T10:22:51.736Z,30.91
2019-05-29T10:23:51.755Z,31.38
2019-05-29T10:24:51.713Z,31.31
2019-05-29T10:25:51.711Z,31.43
2019-05-29T10:26:51.716Z,31.67
2019-05-29T10:27:51.725Z,32.30
2019-05-29T10:29:04.419Z,32.62
2019-05-29T10:29:53.203Z,32.58
2019-05-29T10:30:52.760Z,32.73
2019-05-29T10:31:53.444Z,33.07
2019-05-29T10:32:52.895Z,33.30
2019-05-29T10:33:52.402Z,32.51
2019-05-29T10:34:52.673Z,30.98
2019-05-29T10:35:53.847Z,31.12
2019-05-29T10:36:53.515Z,31.08
2019-05-29T10:37:52.872Z,30.43
2019-05-29T10:38:52.613Z,30.34
2019-05-29T10:39:52.904Z,30.16
2019-05-29T10:41:00.402Z,30.53
2019-05-29T10:41:53.037Z,30.27
2019-05-29T10:42:51.747Z,29.82
2019-05-29T10:43:51.534Z,30.33
2019-05-29T10:44:51.532Z,30.49
2019-05-29T10:45:52.131Z,30.67
2019-05-29T10:46:52.498Z,31.01
2019-05-29T10:47:52.375Z,31.42
2019-05-29T10:48:54.226Z,31.79
2019-05-29T10:49:51.828Z,32.13
2019-05-29T10:50:53.577Z,31.87
2019-05-29T10:52:09.381Z,32.10
2019-05-29T10:52:52.469Z,32.29
2019-05-29T10:53:53.142Z,32.49
2019-05-29T10:54:52.456Z,32.61
2019-05-29T10:55:52.626Z,32.96
2019-05-29T10:56:52.487Z,33.52
2019-05-29T10:57:52.926Z,33.89
2019-05-29T10:58:57.370Z,33.70
2019-05-29T10:59:52.868Z,33.78
2019-05-29T11:00:51.402Z,34.02
2019-05-29T11:01:51.896Z,34.22
2019-05-29T11:02:53.465Z,34.69
2019-05-29T11:03:52.343Z,35.51
2019-05-29T11:04:54.751Z,35.92
2019-05-29T11:05:53.687Z,36.49
2019-05-29T11:06:52.453Z,36.52
2019-05-29T11:07:51.883Z,36.51
2019-05-29T11:08:52.041Z,36.07
2019-05-29T11:09:52.154Z,35.95
2019-05-29T11:10:52.069Z,35.44
2019-05-29T11:11:53.089Z,35.23
2019-05-29T11:12:52.510Z,35.23
2019-05-29T11:13:51.275Z,35.15
2019-05-29T11:14:51.266Z,35.14
2019-05-29T11:15:51.258Z,35.06
2019-05-29T11:16:51.246Z,35.44
2019-05-29T11:17:51.486Z,35.33
2019-05-29T11:18:51.310Z,34.81
2019-05-29T11:19:51.256Z,34.39
2019-05-29T11:20:51.406Z,34.26
2019-05-29T11:21:51.712Z,34.44
2019-05-29T11:22:51.650Z,34.35
2019-05-29T11:23:51.813Z,34.23
2019-05-29T11:24:52.370Z,34.38
2019-05-29T11:25:52.097Z,34.31
2019-05-29T11:26:52.565Z,32.42
2019-05-29T11:27:53.034Z,31.01
2019-05-29T11:28:52.311Z,29.23
2019-05-29T11:29:53.069Z,29.37
2019-05-29T11:30:52.313Z,30.43
2019-05-29T11:31:51.153Z,30.74
2019-05-29T11:32:53.037Z,30.80
2019-05-29T11:33:51.107Z,30.49
2019-05-29T11:34:52.365Z,31.01
2019-05-29T11:36:03.294Z,31.50
2019-05-29T11:36:52.068Z,32.13
2019-05-29T11:37:52.352Z,32.55
2019-05-29T11:38:52.461Z,33.11
2019-05-29T11:39:52.412Z,33.55
2019-05-29T11:41:04.980Z,33.97
2019-05-29T11:41:52.670Z,34.04
2019-05-29T11:42:51.034Z,34.35
2019-05-29T11:43:51.008Z,33.29
2019-05-29T11:44:51.016Z,32.59
2019-05-29T11:45:51.221Z,32.80
2019-05-29T11:46:52.111Z,32.70
2019-05-29T11:47:51.556Z,30.68
2019-05-29T11:48:51.161Z,30.18
2019-05-29T11:49:51.000Z,29.07
2019-05-29T11:50:52.060Z,29.06
2019-05-29T11:51:51.619Z,29.77
2019-05-29T11:52:50.976Z,30.38
2019-05-29T11:53:51.451Z,31.05
2019-05-29T11:54:53.601Z,31.28
2019-05-29T11:55:52.459Z,31.82
2019-05-29T11:56:52.258Z,31.88
2019-05-29T11:57:51.832Z,32.24
2019-05-29T11:58:50.906Z,32.27
2019-05-29T11:59:51.848Z,32.81
2019-05-29T12:00:50.852Z,33.36
2019-05-29T12:01:52.222Z,33.80
2019-05-29T12:02:51.518Z,33.82
2019-05-29T12:04:15.439Z,34.11
2019-05-29T12:04:52.994Z,33.87
2019-05-29T12:05:51.172Z,33.76
2019-05-29T12:06:51.176Z,33.23
2019-05-29T12:07:51.593Z,33.41
2019-05-29T12:08:51.445Z,33.83
2019-05-29T12:09:51.339Z,34.19
2019-05-29T12:10:51.253Z,34.38
2019-05-29T12:11:51.785Z,34.98
2019-05-29T12:12:51.364Z,34.92
2019-05-29T12:13:51.674Z,34.91
2019-05-29T12:15:00.283Z,34.73
2019-05-29T12:15:51.807Z,35.10
2019-05-29T12:16:51.756Z,35.47
2019-05-29T12:17:57.915Z,35.62
2019-05-29T12:18:51.709Z,35.63
2019-05-29T12:19:51.789Z,35.77
2019-05-29T12:20:52.003Z,35.33
2019-05-29T12:21:52.159Z,34.57
2019-05-29T12:23:15.698Z,34.34
2019-05-29T12:23:51.973Z,34.39
2019-05-29T12:24:50.648Z,34.60
2019-05-29T12:26:11.629Z,34.63
2019-05-29T12:26:52.426Z,34.76
2019-05-29T12:27:50.631Z,34.29
2019-05-29T12:28:50.624Z,34.27
2019-05-29T12:29:50.612Z,34.46
2019-05-29T12:30:50.605Z,34.61
2019-05-29T12:31:50.603Z,34.63
2019-05-29T12:32:50.598Z,34.17
2019-05-29T12:33:51.074Z,34.09
2019-05-29T12:34:53.752Z,33.15
2019-05-29T12:35:50.545Z,31.76
2019-05-29T12:36:50.555Z,30.53
2019-05-29T12:37:50.558Z,29.57
2019-05-29T12:38:50.523Z,28.33
2019-05-29T12:39:50.531Z,27.51
2019-05-29T12:40:50.523Z,26.52
2019-05-29T12:41:50.546Z,25.74
2019-05-29T12:42:50.541Z,24.85
2019-05-29T12:43:50.476Z,23.58
2019-05-29T12:44:50.462Z,23.17
2019-05-29T12:45:50.462Z,22.90
2019-05-29T12:46:50.450Z,23.15
2019-05-29T12:47:50.452Z,23.29
2019-05-29T12:48:50.418Z,23.26
2019-05-29T12:49:50.412Z,23.14
2019-05-29T12:50:50.406Z,23.04
2019-05-29T12:51:50.420Z,22.69
2019-05-29T12:52:50.413Z,22.67